createdAt,value
2018-06-08T00:00:27.640Z,14.80
2018-06-08T00:02:56.125Z,14.80
2018-06-08T00:05:24.741Z,14.80
2018-06-08T00:07:53.308Z,14.80
2018-06-08T00:10:21.852Z,14.90
2018-06-08T00:12:50.512Z,14.80
2018-06-08T00:15:19.137Z,14.70
2018-06-08T00:17:47.655Z,14.70
2018-06-08T00:20:16.227Z,14.60
2018-06-08T00:22:45.066Z,14.60
2018-06-08T00:25:14.064Z,14.70
2018-06-08T00:27:42.552Z,14.60
2018-06-08T00:30:11.088Z,14.60
2018-06-08T00:32:39.953Z,14.50
2018-06-08T00:37:37.153Z,14.40
2018-06-08T00:40:05.840Z,14.40
2018-06-08T00:42:34.324Z,14.40
2018-06-08T00:45:02.913Z,14.30
2018-06-08T00:47:31.516Z,14.30
2018-06-08T00:49:59.989Z,14.40
2018-06-08T00:54:56.884Z,14.40
2018-06-08T00:57:25.424Z,14.40
2018-06-08T00:59:53.993Z,14.30
2018-06-08T01:02:22.467Z,14.30
2018-06-08T01:04:50.936Z,14.20
2018-06-08T01:07:19.692Z,14.20
2018-06-08T01:09:48.530Z,14.20
2018-06-08T01:12:17.147Z,14.20
2018-06-08T01:14:45.675Z,14.40
2018-06-08T01:17:14.158Z,14.30
2018-06-08T01:19:42.693Z,14.20
2018-06-08T01:24:39.680Z,14.10
2018-06-08T01:27:08.164Z,14.00
2018-06-08T01:29:36.836Z,14.00
2018-06-08T01:34:33.654Z,14.10
2018-06-08T01:37:02.437Z,14.00
2018-06-08T01:39:30.884Z,14.00
2018-06-08T01:44:27.661Z,14.00
2018-06-08T01:46:56.304Z,14.00
2018-06-08T01:49:24.804Z,13.90
2018-06-08T01:51:53.524Z,13.90
2018-06-08T01:54:22.020Z,13.80
2018-06-08T01:56:50.481Z,13.90
2018-06-08T01:59:19.161Z,13.90
2018-06-08T02:01:47.621Z,13.90
2018-06-08T02:04:16.100Z,14.00
2018-06-08T02:06:44.652Z,13.80
2018-06-08T02:09:13.088Z,13.90
2018-06-08T02:11:41.604Z,13.90
2018-06-08T02:14:10.065Z,14.00
2018-06-08T02:16:38.765Z,14.00
2018-06-08T02:19:07.455Z,13.90
2018-06-08T02:21:36.024Z,14.00
2018-06-08T02:24:04.501Z,13.90
2018-06-08T02:26:33.400Z,13.80
2018-06-08T02:29:02.264Z,13.80
2018-06-08T02:31:30.772Z,13.80
2018-06-08T02:36:27.537Z,13.70
2018-06-08T02:38:56.191Z,13.70
2018-06-08T02:41:24.666Z,13.70
2018-06-08T02:43:53.355Z,13.70
2018-06-08T02:46:22.020Z,13.70
2018-06-08T02:48:50.608Z,13.70
2018-06-08T02:51:19.185Z,13.60
2018-06-08T02:53:47.681Z,13.80
2018-06-08T02:56:16.703Z,13.90
2018-06-08T02:58:45.189Z,13.90
2018-06-08T03:01:14.444Z,13.80
2018-06-08T03:03:42.899Z,13.80
2018-06-08T03:06:11.620Z,13.80
2018-06-08T03:08:40.169Z,13.80
2018-06-08T03:11:08.684Z,13.90
2018-06-08T03:13:37.548Z,14.00
2018-06-08T03:16:06.464Z,14.00
2018-06-08T03:18:34.988Z,14.00
2018-06-08T03:21:03.491Z,14.10
2018-06-08T03:23:31.960Z,14.10
2018-06-08T03:26:00.525Z,14.10
2018-06-08T03:28:28.980Z,14.20
2018-06-08T03:30:58.224Z,14.10
2018-06-08T03:33:26.764Z,14.00
2018-06-08T03:35:55.440Z,14.10
2018-06-08T03:38:24.507Z,14.10
2018-06-08T03:40:52.977Z,14.10
2018-06-08T03:43:21.444Z,14.20
2018-06-08T03:50:46.486Z,14.10
2018-06-08T03:53:15.368Z,14.20
2018-06-08T03:55:44.036Z,14.20
2018-06-08T03:58:12.865Z,14.00
2018-06-08T04:00:41.373Z,14.00
2018-06-08T04:03:10.089Z,14.00
2018-06-08T04:05:38.537Z,14.10
2018-06-08T04:08:07.484Z,13.90
2018-06-08T04:10:35.981Z,13.80
2018-06-08T04:13:04.518Z,13.70
2018-06-08T04:15:33.029Z,13.80
2018-06-08T04:18:01.495Z,13.90
2018-06-08T04:20:30.121Z,13.90
2018-06-08T04:22:58.613Z,13.90
2018-06-08T04:25:27.136Z,13.90
2018-06-08T04:27:55.772Z,13.90
2018-06-08T04:30:24.364Z,14.20
2018-06-08T04:32:53.190Z,14.10
2018-06-08T04:35:22.109Z,14.00
2018-06-08T04:37:50.609Z,14.00
2018-06-08T04:40:19.190Z,14.00
2018-06-08T04:42:47.858Z,14.10
2018-06-08T04:45:16.334Z,14.30
2018-06-08T04:47:44.966Z,14.40
2018-06-08T04:50:13.467Z,14.30
2018-06-08T04:52:42.119Z,14.50
2018-06-08T04:55:10.586Z,14.50
2018-06-08T04:57:39.202Z,14.60
2018-06-08T05:00:07.853Z,14.70
2018-06-08T05:05:05.079Z,14.70
2018-06-08T05:07:33.567Z,14.80
2018-06-08T05:10:02.406Z,14.80
2018-06-08T05:14:59.548Z,15.10
2018-06-08T05:17:28.212Z,15.10
2018-06-08T05:19:56.667Z,15.10
2018-06-08T05:22:25.136Z,15.20
2018-06-08T05:27:21.833Z,15.40
2018-06-08T05:29:50.429Z,15.50
2018-06-08T05:32:18.903Z,15.50
2018-06-08T05:34:47.616Z,15.50
2018-06-08T05:37:16.123Z,15.50
2018-06-08T05:39:44.848Z,15.70
2018-06-08T05:42:13.324Z,15.70
2018-06-08T05:44:41.788Z,15.90
2018-06-08T05:47:10.416Z,16.00
2018-06-08T05:52:07.144Z,16.20
2018-06-08T05:54:35.789Z,16.30
2018-06-08T05:59:33.351Z,16.40
2018-06-08T06:02:02.149Z,16.50
2018-06-08T06:04:30.773Z,16.50
2018-06-08T06:06:59.239Z,16.60
2018-06-08T06:09:27.825Z,16.50
2018-06-08T06:14:25.648Z,16.70
2018-06-08T06:16:54.069Z,16.70
2018-06-08T06:21:50.993Z,16.80
2018-06-08T06:24:19.545Z,16.80
2018-06-08T06:26:48.245Z,16.90
2018-06-08T06:29:16.843Z,16.90
2018-06-08T06:31:45.461Z,16.90
2018-06-08T06:34:13.951Z,17.00
2018-06-08T06:41:39.320Z,17.20
2018-06-08T06:44:08.036Z,17.20
2018-06-08T06:46:36.797Z,17.60
2018-06-08T06:49:05.755Z,17.50
2018-06-08T06:51:34.580Z,17.50
2018-06-08T06:54:03.536Z,17.60
2018-06-08T06:56:31.996Z,17.60
2018-06-08T06:59:17.264Z,17.70
2018-06-08T07:01:45.745Z,17.80
2018-06-08T07:04:14.783Z,17.90
2018-06-08T07:06:43.329Z,17.80
2018-06-08T07:09:11.793Z,17.90
2018-06-08T07:11:40.404Z,17.90
2018-06-08T07:14:09.012Z,17.90
2018-06-08T07:16:37.538Z,18.10
2018-06-08T07:19:06.481Z,18.30
2018-06-08T07:21:34.927Z,18.50
2018-06-08T07:24:03.532Z,18.60
2018-06-08T07:26:32.381Z,18.70
2018-06-08T07:29:01.212Z,18.80
2018-06-08T07:31:29.788Z,18.80
2018-06-08T07:36:26.552Z,18.90
2018-06-08T07:38:55.138Z,18.60
2018-06-08T07:41:23.636Z,18.60
2018-06-08T07:43:52.137Z,18.70
2018-06-08T07:46:20.774Z,18.80
2018-06-08T07:48:49.306Z,19.10
2018-06-08T07:51:18.145Z,19.30
2018-06-08T07:53:47.008Z,19.40
2018-06-08T07:56:15.710Z,19.40
2018-06-08T07:58:44.824Z,19.20
2018-06-08T08:01:13.571Z,19.30
2018-06-08T08:03:42.195Z,19.50
2018-06-08T08:06:10.721Z,19.80
2018-06-08T08:08:39.171Z,20.00
2018-06-08T08:11:07.708Z,19.90
2018-06-08T08:16:04.581Z,20.40
2018-06-08T08:18:33.412Z,20.00
2018-06-08T08:21:01.887Z,20.00
2018-06-08T08:23:30.588Z,19.90
2018-06-08T08:25:59.274Z,20.10
2018-06-08T08:28:27.723Z,20.40
2018-06-08T08:30:56.710Z,20.20
2018-06-08T08:33:25.588Z,20.30
2018-06-08T08:35:54.172Z,20.50
2018-06-08T08:38:22.725Z,20.60
2018-06-08T08:43:19.601Z,20.80
2018-06-08T08:45:48.111Z,20.70
2018-06-08T08:48:16.912Z,21.30
2018-06-08T08:50:45.499Z,21.20
2018-06-08T08:53:14.097Z,21.30
2018-06-08T08:55:42.653Z,21.60
2018-06-08T08:58:11.113Z,21.80
2018-06-08T09:00:39.872Z,21.70
2018-06-08T09:03:08.360Z,21.50
2018-06-08T09:05:36.808Z,21.50
2018-06-08T09:08:05.552Z,21.10
2018-06-08T09:10:34.074Z,21.10
2018-06-08T09:13:02.501Z,20.80
2018-06-08T09:15:30.990Z,20.90
2018-06-08T09:17:59.460Z,21.10
2018-06-08T09:25:24.928Z,20.80
2018-06-08T09:27:53.590Z,20.80
2018-06-08T09:32:50.625Z,21.30
2018-06-08T09:35:19.518Z,21.10
2018-06-08T09:37:48.041Z,21.20
2018-06-08T09:40:16.476Z,21.20
2018-06-08T09:42:44.998Z,21.10
2018-06-08T09:45:13.664Z,21.10
2018-06-08T09:47:42.172Z,21.30
2018-06-08T09:50:10.677Z,21.60
2018-06-08T09:52:39.244Z,21.50
2018-06-08T09:55:07.710Z,21.20
2018-06-08T09:57:36.165Z,21.50
2018-06-08T10:00:04.910Z,21.50
2018-06-08T10:02:33.547Z,21.80
2018-06-08T10:07:30.721Z,21.90
2018-06-08T10:09:59.233Z,22.40
2018-06-08T10:12:27.864Z,22.40
2018-06-08T10:14:56.571Z,22.50
2018-06-08T10:19:53.235Z,22.40
2018-06-08T10:22:21.706Z,22.40
2018-06-08T10:24:50.131Z,23.10
2018-06-08T10:27:18.673Z,22.70
2018-06-08T10:29:47.131Z,22.70
2018-06-08T10:32:15.634Z,23.10
2018-06-08T10:34:44.093Z,23.00
2018-06-08T10:37:12.895Z,23.00
2018-06-08T10:39:41.479Z,23.10
2018-06-08T10:42:10.033Z,23.50
2018-06-08T10:44:38.595Z,23.40
2018-06-08T10:47:07.059Z,23.10
2018-06-08T10:49:35.659Z,23.30
2018-06-08T10:52:04.455Z,23.40
2018-06-08T10:57:01.528Z,23.50
2018-06-08T10:59:30.047Z,23.40
2018-06-08T11:01:58.737Z,23.40
2018-06-08T11:04:27.257Z,24.00
2018-06-08T11:06:55.703Z,23.90
2018-06-08T11:09:24.305Z,24.00
2018-06-08T11:11:53.020Z,24.10
2018-06-08T11:14:21.506Z,24.50
2018-06-08T11:16:50.064Z,24.50
2018-06-08T11:19:18.724Z,24.60
2018-06-08T11:21:47.237Z,24.10
2018-06-08T11:24:15.654Z,23.90
2018-06-08T11:26:44.128Z,24.00
2018-06-08T11:29:12.777Z,24.50
2018-06-08T11:36:37.788Z,24.10
2018-06-08T11:39:08.044Z,24.50
2018-06-08T11:41:36.839Z,24.60
2018-06-08T11:46:33.670Z,24.80
2018-06-08T11:49:02.123Z,24.90
2018-06-08T11:51:30.613Z,24.90
2018-06-08T11:53:59.135Z,24.70
2018-06-08T11:56:28.031Z,24.50
2018-06-08T11:58:56.480Z,25.30
2018-06-08T12:01:24.938Z,25.30
2018-06-08T12:03:53.384Z,24.10
2018-06-08T12:06:22.201Z,23.90
2018-06-08T12:08:50.810Z,23.90
2018-06-08T12:11:19.436Z,24.30
2018-06-08T12:13:47.982Z,24.60
2018-06-08T12:16:16.520Z,25.00
2018-06-08T12:21:13.600Z,24.00
2018-06-08T12:23:42.120Z,24.10
2018-06-08T12:28:38.988Z,24.70
2018-06-08T12:31:07.680Z,25.00
2018-06-08T12:33:36.161Z,25.00
2018-06-08T12:36:05.315Z,25.30
2018-06-08T12:38:35.718Z,25.50
2018-06-08T12:41:04.184Z,25.20
2018-06-08T12:43:32.709Z,24.70
2018-06-08T12:46:01.504Z,25.10
2018-06-08T12:48:30.100Z,25.40
2018-06-08T12:53:26.799Z,25.90
2018-06-08T12:55:55.484Z,26.00
2018-06-08T12:58:24.058Z,25.60
2018-06-08T13:03:20.705Z,25.10
2018-06-08T13:08:17.706Z,25.50
2018-06-08T13:10:46.175Z,25.70
2018-06-08T13:13:14.671Z,26.00
2018-06-08T13:15:43.286Z,26.20
2018-06-08T13:18:11.924Z,25.70
2018-06-08T13:20:40.396Z,25.40
2018-06-08T13:23:08.841Z,25.40
2018-06-08T13:28:06.044Z,24.90
2018-06-08T13:30:34.508Z,24.90
2018-06-08T13:33:03.556Z,24.80
2018-06-08T13:35:32.085Z,25.20
2018-06-08T13:38:00.621Z,25.50
2018-06-08T13:40:29.185Z,25.50
2018-06-08T13:42:57.984Z,25.50
2018-06-08T13:45:26.772Z,25.50
2018-06-08T13:47:55.380Z,25.50
2018-06-08T13:50:23.987Z,25.30
2018-06-08T13:52:52.478Z,25.50
2018-06-08T13:55:20.970Z,26.00
2018-06-08T13:57:49.815Z,26.20
2018-06-08T14:00:18.329Z,26.60
2018-06-08T14:02:47.008Z,26.70
2018-06-08T14:05:15.958Z,27.20
2018-06-08T14:10:12.704Z,26.60
2018-06-08T14:12:41.434Z,26.10
2018-06-08T14:15:10.017Z,25.90
2018-06-08T14:17:38.528Z,25.90
2018-06-08T14:20:07.069Z,26.80
2018-06-08T14:22:35.735Z,26.40
2018-06-08T14:27:32.737Z,26.40
2018-06-08T14:32:29.745Z,26.30
2018-06-08T14:34:58.552Z,26.90
2018-06-08T14:37:27.125Z,27.50
2018-06-08T14:47:21.050Z,27.40
2018-06-08T14:49:49.620Z,27.50
2018-06-08T17:55:10.462Z,17.80
2018-06-08T17:57:41.729Z,17.80
2018-06-08T18:00:11.344Z,17.90
2018-06-08T18:02:39.846Z,18.10
2018-06-08T18:05:08.828Z,18.30
2018-06-08T18:07:37.285Z,18.20
2018-06-08T18:10:06.157Z,18.40
2018-06-08T18:12:34.628Z,18.30
2018-06-08T18:19:59.973Z,18.40
2018-06-08T18:24:56.680Z,18.30
2018-06-08T18:27:25.217Z,18.30
2018-06-08T18:29:53.936Z,18.50
2018-06-08T18:32:22.554Z,18.60
2018-06-08T18:34:51.320Z,18.40
2018-06-08T18:37:19.901Z,18.40
2018-06-08T18:39:48.401Z,18.30
2018-06-08T18:42:17.353Z,18.20
2018-06-08T18:44:45.868Z,18.30
2018-06-08T18:47:14.748Z,18.50
2018-06-08T18:49:43.385Z,18.30
2018-06-08T18:52:11.979Z,18.40
2018-06-08T18:54:40.539Z,18.40
2018-06-08T18:57:09.420Z,18.40
2018-06-08T18:59:38.029Z,18.40
2018-06-08T19:02:06.935Z,18.50
2018-06-08T19:04:36.094Z,18.50
2018-06-08T19:07:05.189Z,18.50
2018-06-08T19:12:02.025Z,18.30
2018-06-08T19:14:30.557Z,18.40
2018-06-08T19:16:59.114Z,18.40
2018-06-08T19:19:27.637Z,18.40
2018-06-08T19:21:56.417Z,18.30
2018-06-08T19:29:21.449Z,18.10
2018-06-08T19:39:14.536Z,18.20
2018-06-08T19:46:39.497Z,18.10
2018-06-08T19:56:32.630Z,17.80
2018-06-08T19:59:01.461Z,17.70
2018-06-08T20:01:29.960Z,17.70
2018-06-08T20:06:26.876Z,17.70
2018-06-08T20:08:55.427Z,17.70
2018-06-08T20:11:24.084Z,17.90
2018-06-08T20:13:52.590Z,17.90
2018-06-08T20:16:21.096Z,17.80
2018-06-08T20:18:49.751Z,17.70
2018-06-08T20:21:18.280Z,17.70
2018-06-08T20:23:46.877Z,17.70
2018-06-08T20:26:15.409Z,17.60
2018-06-08T20:28:43.925Z,17.50
2018-06-08T20:31:12.514Z,17.60
2018-06-08T20:33:41.164Z,17.70
2018-06-08T20:38:38.380Z,17.80
2018-06-08T20:41:06.882Z,17.80
2018-06-08T20:43:35.405Z,17.70
2018-06-08T20:46:04.004Z,17.70
2018-06-08T20:53:29.248Z,17.80
2018-06-08T20:55:57.951Z,17.80
2018-06-08T20:58:28.418Z,17.70
2018-06-08T21:00:57.510Z,17.70
2018-06-08T21:03:25.968Z,17.60
2018-06-08T21:08:23.071Z,17.60
2018-06-08T21:13:20.851Z,17.60
2018-06-08T21:15:49.533Z,17.60
2018-06-08T21:20:46.351Z,17.40
2018-06-08T21:23:15.131Z,17.40
2018-06-08T21:25:43.775Z,17.60
2018-06-08T21:28:12.295Z,17.60
2018-06-08T21:30:40.906Z,17.60
